sensor_id;sensor_type;location;lat;lon;timestamp;temperature;humidity
75865;HTU21D;64510;46.704;38.274;2023-06-14T00:01:59;19.95;94.78
75865;HTU21D;64510;46.704;38.274;2023-06-14T00:04:25;19.97;94.79
75865;HTU21D;64510;46.704;38.274;2023-06-14T00:06:51;19.98;94.86
75865;HTU21D;64510;46.704;38.274;2023-06-14T00:09:18;20.00;94.85
75865;HTU21D;64510;46.704;38.274;2023-06-14T00:11:44;20.02;94.75
75865;HTU21D;64510;46.704;38.274;2023-06-14T00:14:10;20.01;94.80
75865;HTU21D;64510;46.704;38.274;2023-06-14T00:16:36;19.99;94.94
75865;HTU21D;64510;46.704;38.274;2023-06-14T00:19:04;19.98;94.98
75865;HTU21D;64510;46.704;38.274;2023-06-14T00:21:31;19.98;94.95
75865;HTU21D;64510;46.704;38.274;2023-06-14T00:23:58;19.96;94.95
75865;HTU21D;64510;46.704;38.274;2023-06-14T00:26:24;19.94;95.07
75865;HTU21D;64510;46.704;38.274;2023-06-14T00:28:53;19.94;95.14
75865;HTU21D;64510;46.704;38.274;2023-06-14T00:31:19;19.92;95.17
75865;HTU21D;64510;46.704;38.274;2023-06-14T00:33:46;19.91;95.21
75865;HTU21D;64510;46.704;38.274;2023-06-14T00:36:12;19.86;95.36
75865;HTU21D;64510;46.704;38.274;2023-06-14T00:38:38;19.85;95.46
75865;HTU21D;64510;46.704;38.274;2023-06-14T00:41:04;19.82;95.55
75865;HTU21D;64510;46.704;38.274;2023-06-14T00:43:30;19.81;95.61
75865;HTU21D;64510;46.704;38.274;2023-06-14T00:45:56;19.80;95.72
75865;HTU21D;64510;46.704;38.274;2023-06-14T00:48:22;19.77;95.81
75865;HTU21D;64510;46.704;38.274;2023-06-14T00:50:50;19.75;95.89
75865;HTU21D;64510;46.704;38.274;2023-06-14T00:53:17;19.73;96.04
75865;HTU21D;64510;46.704;38.274;2023-06-14T00:55:44;19.71;96.06
75865;HTU21D;64510;46.704;38.274;2023-06-14T00:58:11;19.69;96.13
75865;HTU21D;64510;46.704;38.274;2023-06-14T01:00:37;19.69;96.09
75865;HTU21D;64510;46.704;38.274;2023-06-14T01:03:03;19.68;96.23
75865;HTU21D;64510;46.704;38.274;2023-06-14T01:05:29;19.69;96.25
75865;HTU21D;64510;46.704;38.274;2023-06-14T01:10:53;19.66;96.58
75865;HTU21D;64510;46.704;38.274;2023-06-14T01:13:29;19.62;96.46
75865;HTU21D;64510;46.704;38.274;2023-06-14T01:15:58;19.62;96.69
75865;HTU21D;64510;46.704;38.274;2023-06-14T01:18:24;19.60;96.65
75865;HTU21D;64510;46.704;38.274;2023-06-14T01:20:51;19.60;96.58
75865;HTU21D;64510;46.704;38.274;2023-06-14T01:23:24;19.59;96.75
75865;HTU21D;64510;46.704;38.274;2023-06-14T01:25:51;19.57;96.88
75865;HTU21D;64510;46.704;38.274;2023-06-14T01:28:21;19.55;97.04
75865;HTU21D;64510;46.704;38.274;2023-06-14T01:30:49;19.56;97.16
75865;HTU21D;64510;46.704;38.274;2023-06-14T01:33:22;19.56;97.24
75865;HTU21D;64510;46.704;38.274;2023-06-14T01:35:53;19.56;97.35
75865;HTU21D;64510;46.704;38.274;2023-06-14T01:38:21;19.53;97.39
75865;HTU21D;64510;46.704;38.274;2023-06-14T01:40:48;19.51;97.41
75865;HTU21D;64510;46.704;38.274;2023-06-14T01:43:18;19.53;97.40
75865;HTU21D;64510;46.704;38.274;2023-06-14T01:45:46;19.54;97.55
75865;HTU21D;64510;46.704;38.274;2023-06-14T01:48:13;19.54;97.57
75865;HTU21D;64510;46.704;38.274;2023-06-14T01:50:40;19.56;97.68
75865;HTU21D;64510;46.704;38.274;2023-06-14T01:53:08;19.56;97.63
75865;HTU21D;64510;46.704;38.274;2023-06-14T01:55:37;19.59;97.60
75865;HTU21D;64510;46.704;38.274;2023-06-14T01:58:06;19.59;97.57
75865;HTU21D;64510;46.704;38.274;2023-06-14T02:00:32;19.59;97.59
75865;HTU21D;64510;46.704;38.274;2023-06-14T02:02:58;19.60;97.61
75865;HTU21D;64510;46.704;38.274;2023-06-14T02:05:26;19.61;97.59
75865;HTU21D;64510;46.704;38.274;2023-06-14T02:07:52;19.63;97.45
75865;HTU21D;64510;46.704;38.274;2023-06-14T02:10:21;19.66;97.47
75865;HTU21D;64510;46.704;38.274;2023-06-14T02:12:47;19.66;97.42
75865;HTU21D;64510;46.704;38.274;2023-06-14T02:15:13;19.67;97.48
75865;HTU21D;64510;46.704;38.274;2023-06-14T02:17:48;19.67;97.53
75865;HTU21D;64510;46.704;38.274;2023-06-14T02:20:16;19.68;97.43
75865;HTU21D;64510;46.704;38.274;2023-06-14T02:22:43;19.69;97.49
75865;HTU21D;64510;46.704;38.274;2023-06-14T02:25:08;19.70;97.46
75865;HTU21D;64510;46.704;38.274;2023-06-14T02:27:35;19.74;97.52
75865;HTU21D;64510;46.704;38.274;2023-06-14T02:30:03;19.79;97.43
75865;HTU21D;64510;46.704;38.274;2023-06-14T02:32:32;19.82;97.40
75865;HTU21D;64510;46.704;38.274;2023-06-14T02:34:59;19.86;97.40
75865;HTU21D;64510;46.704;38.274;2023-06-14T02:37:25;19.87;97.26
75865;HTU21D;64510;46.704;38.274;2023-06-14T02:39:52;19.90;97.13
75865;HTU21D;64510;46.704;38.274;2023-06-14T02:42:18;19.90;97.06
75865;HTU21D;64510;46.704;38.274;2023-06-14T02:44:44;19.87;97.16
75865;HTU21D;64510;46.704;38.274;2023-06-14T02:47:12;19.87;97.10
75865;HTU21D;64510;46.704;38.274;2023-06-14T02:49:38;19.87;97.13
75865;HTU21D;64510;46.704;38.274;2023-06-14T02:52:04;19.89;97.10
75865;HTU21D;64510;46.704;38.274;2023-06-14T02:54:30;19.88;97.08
75865;HTU21D;64510;46.704;38.274;2023-06-14T02:56:58;19.91;96.95
75865;HTU21D;64510;46.704;38.274;2023-06-14T02:59:24;19.94;96.93
75865;HTU21D;64510;46.704;38.274;2023-06-14T03:01:53;19.98;96.90
75865;HTU21D;64510;46.704;38.274;2023-06-14T03:04:19;20.02;96.69
75865;HTU21D;64510;46.704;38.274;2023-06-14T03:06:47;20.02;96.67
75865;HTU21D;64510;46.704;38.274;2023-06-14T03:09:18;20.04;96.59
75865;HTU21D;64510;46.704;38.274;2023-06-14T03:11:45;20.04;96.62
75865;HTU21D;64510;46.704;38.274;2023-06-14T03:14:11;20.06;96.52
75865;HTU21D;64510;46.704;38.274;2023-06-14T03:16:41;20.10;96.46
75865;HTU21D;64510;46.704;38.274;2023-06-14T03:19:09;20.16;96.41
75865;HTU21D;64510;46.704;38.274;2023-06-14T03:21:37;20.20;96.20
75865;HTU21D;64510;46.704;38.274;2023-06-14T03:24:04;20.26;96.10
75865;HTU21D;64510;46.704;38.274;2023-06-14T03:26:32;20.31;96.01
75865;HTU21D;64510;46.704;38.274;2023-06-14T03:29:00;20.41;95.82
75865;HTU21D;64510;46.704;38.274;2023-06-14T03:31:26;20.61;95.55
75865;HTU21D;64510;46.704;38.274;2023-06-14T03:33:53;20.71;94.98
75865;HTU21D;64510;46.704;38.274;2023-06-14T03:36:20;20.72;94.94
75865;HTU21D;64510;46.704;38.274;2023-06-14T03:38:46;20.76;94.70
75865;HTU21D;64510;46.704;38.274;2023-06-14T03:41:13;20.70;94.68
75865;HTU21D;64510;46.704;38.274;2023-06-14T03:43:39;20.63;94.74
75865;HTU21D;64510;46.704;38.274;2023-06-14T03:46:05;20.70;94.67
75865;HTU21D;64510;46.704;38.274;2023-06-14T03:48:33;20.76;94.40
75865;HTU21D;64510;46.704;38.274;2023-06-14T03:50:59;20.81;94.25
75865;HTU21D;64510;46.704;38.274;2023-06-14T03:53:26;20.89;94.13
75865;HTU21D;64510;46.704;38.274;2023-06-14T03:55:55;20.93;93.69
75865;HTU21D;64510;46.704;38.274;2023-06-14T03:58:24;20.88;93.69
75865;HTU21D;64510;46.704;38.274;2023-06-14T04:00:50;20.86;93.69
75865;HTU21D;64510;46.704;38.274;2023-06-14T04:03:16;20.85;93.70
75865;HTU21D;64510;46.704;38.274;2023-06-14T04:05:42;20.87;93.55
75865;HTU21D;64510;46.704;38.274;2023-06-14T04:08:08;21.10;93.59
75865;HTU21D;64510;46.704;38.274;2023-06-14T04:10:36;21.60;92.59
75865;HTU21D;64510;46.704;38.274;2023-06-14T04:13:02;21.85;91.59
75865;HTU21D;64510;46.704;38.274;2023-06-14T04:15:29;21.92;90.81
75865;HTU21D;64510;46.704;38.274;2023-06-14T04:17:57;21.91;90.55
75865;HTU21D;64510;46.704;38.274;2023-06-14T04:20:24;21.97;90.47
75865;HTU21D;64510;46.704;38.274;2023-06-14T04:22:51;22.33;90.22
75865;HTU21D;64510;46.704;38.274;2023-06-14T04:25:18;22.73;89.39
75865;HTU21D;64510;46.704;38.274;2023-06-14T04:27:44;22.96;88.72
75865;HTU21D;64510;46.704;38.274;2023-06-14T04:30:11;23.06;88.10
75865;HTU21D;64510;46.704;38.274;2023-06-14T04:32:42;23.25;87.29
75865;HTU21D;64510;46.704;38.274;2023-06-14T04:35:11;23.45;86.47
75865;HTU21D;64510;46.704;38.274;2023-06-14T04:37:40;23.67;86.19
75865;HTU21D;64510;46.704;38.274;2023-06-14T04:40:08;23.86;85.24
75865;HTU21D;64510;46.704;38.274;2023-06-14T04:42:36;24.16;84.36
75865;HTU21D;64510;46.704;38.274;2023-06-14T04:45:05;24.32;83.61
75865;HTU21D;64510;46.704;38.274;2023-06-14T04:47:32;24.57;82.85
75865;HTU21D;64510;46.704;38.274;2023-06-14T04:50:00;24.63;82.57
75865;HTU21D;64510;46.704;38.274;2023-06-14T04:52:29;24.89;82.27
75865;HTU21D;64510;46.704;38.274;2023-06-14T04:54:56;25.00;81.17
75865;HTU21D;64510;46.704;38.274;2023-06-14T04:57:24;24.91;80.49
75865;HTU21D;64510;46.704;38.274;2023-06-14T04:59:54;24.78;80.54
75865;HTU21D;64510;46.704;38.274;2023-06-14T05:02:25;24.50;80.61
75865;HTU21D;64510;46.704;38.274;2023-06-14T05:04:53;24.38;81.15
75865;HTU21D;64510;46.704;38.274;2023-06-14T05:07:21;24.58;80.98
75865;HTU21D;64510;46.704;38.274;2023-06-14T05:09:50;24.69;80.82
75865;HTU21D;64510;46.704;38.274;2023-06-14T05:12:16;24.77;80.07
75865;HTU21D;64510;46.704;38.274;2023-06-14T05:14:45;24.61;80.02
75865;HTU21D;64510;46.704;38.274;2023-06-14T05:17:11;24.75;79.91
75865;HTU21D;64510;46.704;38.274;2023-06-14T05:19:37;24.87;79.27
75865;HTU21D;64510;46.704;38.274;2023-06-14T05:22:03;25.08;79.15
75865;HTU21D;64510;46.704;38.274;2023-06-14T05:24:29;25.30;78.86
75865;HTU21D;64510;46.704;38.274;2023-06-14T05:26:56;25.58;77.66
75865;HTU21D;64510;46.704;38.274;2023-06-14T05:29:22;25.91;76.94
75865;HTU21D;64510;46.704;38.274;2023-06-14T05:31:48;26.11;76.30
75865;HTU21D;64510;46.704;38.274;2023-06-14T05:34:14;26.38;76.34
75865;HTU21D;64510;46.704;38.274;2023-06-14T05:36:40;26.69;74.91
75865;HTU21D;64510;46.704;38.274;2023-06-14T05:39:06;26.84;74.67
75865;HTU21D;64510;46.704;38.274;2023-06-14T05:41:32;26.92;73.79
75865;HTU21D;64510;46.704;38.274;2023-06-14T05:43:58;26.65;73.98
75865;HTU21D;64510;46.704;38.274;2023-06-14T05:46:26;26.31;74.42
75865;HTU21D;64510;46.704;38.274;2023-06-14T05:48:52;26.07;74.78
75865;HTU21D;64510;46.704;38.274;2023-06-14T05:51:18;25.91;74.69
75865;HTU21D;64510;46.704;38.274;2023-06-14T05:53:45;25.78;74.72
75865;HTU21D;64510;46.704;38.274;2023-06-14T05:56:12;25.51;75.19
75865;HTU21D;64510;46.704;38.274;2023-06-14T05:58:38;25.50;75.15
75865;HTU21D;64510;46.704;38.274;2023-06-14T06:01:04;25.65;74.69
75865;HTU21D;64510;46.704;38.274;2023-06-14T06:03:30;25.61;74.70
75865;HTU21D;64510;46.704;38.274;2023-06-14T06:05:56;25.50;74.75
75865;HTU21D;64510;46.704;38.274;2023-06-14T06:08:22;25.39;74.97
75865;HTU21D;64510;46.704;38.274;2023-06-14T06:10:48;25.24;75.24
75865;HTU21D;64510;46.704;38.274;2023-06-14T06:13:14;25.17;75.30
75865;HTU21D;64510;46.704;38.274;2023-06-14T06:15:39;25.03;75.53
75865;HTU21D;64510;46.704;38.274;2023-06-14T06:18:06;24.88;76.00
75865;HTU21D;64510;46.704;38.274;2023-06-14T06:20:32;24.91;76.07
75865;HTU21D;64510;46.704;38.274;2023-06-14T06:22:58;24.93;76.24
75865;HTU21D;64510;46.704;38.274;2023-06-14T06:25:25;24.83;76.30
75865;HTU21D;64510;46.704;38.274;2023-06-14T06:27:53;24.72;76.77
75865;HTU21D;64510;46.704;38.274;2023-06-14T06:30:19;24.87;76.84
75865;HTU21D;64510;46.704;38.274;2023-06-14T06:32:46;25.13;76.43
75865;HTU21D;64510;46.704;38.274;2023-06-14T06:35:13;25.16;76.29
75865;HTU21D;64510;46.704;38.274;2023-06-14T06:37:40;25.16;76.35
75865;HTU21D;64510;46.704;38.274;2023-06-14T06:40:07;25.15;76.38
75865;HTU21D;64510;46.704;38.274;2023-06-14T06:42:34;25.21;76.27
75865;HTU21D;64510;46.704;38.274;2023-06-14T06:45:03;25.07;76.53
75865;HTU21D;64510;46.704;38.274;2023-06-14T06:47:30;24.97;77.02
75865;HTU21D;64510;46.704;38.274;2023-06-14T06:49:55;24.91;77.35
75865;HTU21D;64510;46.704;38.274;2023-06-14T06:52:21;24.95;77.11
75865;HTU21D;64510;46.704;38.274;2023-06-14T06:54:47;24.90;77.24
75865;HTU21D;64510;46.704;38.274;2023-06-14T06:57:14;24.92;77.40
75865;HTU21D;64510;46.704;38.274;2023-06-14T06:59:40;25.03;77.18
75865;HTU21D;64510;46.704;38.274;2023-06-14T07:02:06;25.02;77.29
75865;HTU21D;64510;46.704;38.274;2023-06-14T07:04:32;25.03;77.11
75865;HTU21D;64510;46.704;38.274;2023-06-14T07:06:58;25.18;77.14
75865;HTU21D;64510;46.704;38.274;2023-06-14T07:09:24;25.38;76.81
75865;HTU21D;64510;46.704;38.274;2023-06-14T07:11:50;25.62;76.35
75865;HTU21D;64510;46.704;38.274;2023-06-14T07:14:16;25.73;76.02
75865;HTU21D;64510;46.704;38.274;2023-06-14T07:16:42;25.73;76.18
75865;HTU21D;64510;46.704;38.274;2023-06-14T07:19:09;26.16;75.60
75865;HTU21D;64510;46.704;38.274;2023-06-14T07:21:36;26.68;74.32
75865;HTU21D;64510;46.704;38.274;2023-06-14T07:24:05;26.83;73.48
75865;HTU21D;64510;46.704;38.274;2023-06-14T07:26:35;26.80;73.35
75865;HTU21D;64510;46.704;38.274;2023-06-14T07:29:01;26.84;73.22
75865;HTU21D;64510;46.704;38.274;2023-06-14T07:31:27;26.99;72.45
75865;HTU21D;64510;46.704;38.274;2023-06-14T07:33:53;26.94;72.09
75865;HTU21D;64510;46.704;38.274;2023-06-14T07:36:19;26.91;72.16
75865;HTU21D;64510;46.704;38.274;2023-06-14T07:38:45;26.98;71.61
75865;HTU21D;64510;46.704;38.274;2023-06-14T07:41:11;27.02;71.82
75865;HTU21D;64510;46.704;38.274;2023-06-14T07:43:37;27.09;71.25
75865;HTU21D;64510;46.704;38.274;2023-06-14T07:46:04;27.10;71.22
75865;HTU21D;64510;46.704;38.274;2023-06-14T07:48:30;26.98;70.99
75865;HTU21D;64510;46.704;38.274;2023-06-14T07:50:56;26.79;71.38
75865;HTU21D;64510;46.704;38.274;2023-06-14T07:53:22;26.85;71.38
75865;HTU21D;64510;46.704;38.274;2023-06-14T07:55:48;27.10;71.24
75865;HTU21D;64510;46.704;38.274;2023-06-14T07:58:14;27.39;70.43
75865;HTU21D;64510;46.704;38.274;2023-06-14T08:00:40;27.55;69.85
75865;HTU21D;64510;46.704;38.274;2023-06-14T08:03:06;27.61;69.65
75865;HTU21D;64510;46.704;38.274;2023-06-14T08:05:33;27.82;69.37
75865;HTU21D;64510;46.704;38.274;2023-06-14T08:07:59;27.73;69.29
75865;HTU21D;64510;46.704;38.274;2023-06-14T08:10:26;27.41;69.11
75865;HTU21D;64510;46.704;38.274;2023-06-14T08:12:52;27.17;69.27
75865;HTU21D;64510;46.704;38.274;2023-06-14T08:15:18;27.01;69.41
75865;HTU21D;64510;46.704;38.274;2023-06-14T08:17:44;27.06;69.40
75865;HTU21D;64510;46.704;38.274;2023-06-14T08:20:11;27.27;69.04
75865;HTU21D;64510;46.704;38.274;2023-06-14T08:22:37;27.41;68.64
75865;HTU21D;64510;46.704;38.274;2023-06-14T08:25:04;27.45;68.41
75865;HTU21D;64510;46.704;38.274;2023-06-14T08:27:30;27.26;68.36
75865;HTU21D;64510;46.704;38.274;2023-06-14T08:29:56;27.08;69.06
75865;HTU21D;64510;46.704;38.274;2023-06-14T08:32:22;27.29;68.52
75865;HTU21D;64510;46.704;38.274;2023-06-14T08:34:48;27.25;68.24
75865;HTU21D;64510;46.704;38.274;2023-06-14T08:37:14;27.17;68.34
75865;HTU21D;64510;46.704;38.274;2023-06-14T08:39:40;27.35;67.77
75865;HTU21D;64510;46.704;38.274;2023-06-14T08:42:07;27.26;67.43
75865;HTU21D;64510;46.704;38.274;2023-06-14T08:44:34;27.06;68.05
75865;HTU21D;64510;46.704;38.274;2023-06-14T08:47:00;26.86;68.21
75865;HTU21D;64510;46.704;38.274;2023-06-14T08:49:26;26.72;68.73
75865;HTU21D;64510;46.704;38.274;2023-06-14T08:51:57;26.73;68.74
75865;HTU21D;64510;46.704;38.274;2023-06-14T08:54:25;26.83;68.64
75865;HTU21D;64510;46.704;38.274;2023-06-14T08:56:53;26.78;68.39
75865;HTU21D;64510;46.704;38.274;2023-06-14T08:59:26;26.63;68.64
75865;HTU21D;64510;46.704;38.274;2023-06-14T09:01:53;26.52;68.96
75865;HTU21D;64510;46.704;38.274;2023-06-14T09:04:21;26.42;69.04
75865;HTU21D;64510;46.704;38.274;2023-06-14T09:06:55;26.30;69.36
75865;HTU21D;64510;46.704;38.274;2023-06-14T09:09:22;26.36;69.56
75865;HTU21D;64510;46.704;38.274;2023-06-14T09:11:50;26.40;69.28
75865;HTU21D;64510;46.704;38.274;2023-06-14T09:14:18;26.35;68.86
75865;HTU21D;64510;46.704;38.274;2023-06-14T09:16:44;26.46;68.51
75865;HTU21D;64510;46.704;38.274;2023-06-14T09:19:23;26.70;67.62
75865;HTU21D;64510;46.704;38.274;2023-06-14T09:21:50;26.73;67.23
75865;HTU21D;64510;46.704;38.274;2023-06-14T09:24:17;26.81;66.95
75865;HTU21D;64510;46.704;38.274;2023-06-14T09:26:43;27.07;66.55
75865;HTU21D;64510;46.704;38.274;2023-06-14T09:29:09;27.09;65.93
75865;HTU21D;64510;46.704;38.274;2023-06-14T09:31:35;26.99;66.25
75865;HTU21D;64510;46.704;38.274;2023-06-14T09:34:02;26.91;66.35
75865;HTU21D;64510;46.704;38.274;2023-06-14T09:36:32;26.82;66.46
75865;HTU21D;64510;46.704;38.274;2023-06-14T09:39:02;26.54;67.12
75865;HTU21D;64510;46.704;38.274;2023-06-14T09:41:41;26.31;67.85
75865;HTU21D;64510;46.704;38.274;2023-06-14T09:44:10;26.24;68.04
75865;HTU21D;64510;46.704;38.274;2023-06-14T09:46:38;26.19;68.11
75865;HTU21D;64510;46.704;38.274;2023-06-14T09:49:05;26.18;68.18
75865;HTU21D;64510;46.704;38.274;2023-06-14T09:51:32;26.07;68.34
75865;HTU21D;64510;46.704;38.274;2023-06-14T09:54:02;26.05;68.50
75865;HTU21D;64510;46.704;38.274;2023-06-14T09:56:37;25.95;68.63
75865;HTU21D;64510;46.704;38.274;2023-06-14T09:59:05;25.96;68.77
75865;HTU21D;64510;46.704;38.274;2023-06-14T10:01:34;25.92;68.88
75865;HTU21D;64510;46.704;38.274;2023-06-14T10:04:06;25.97;68.58
75865;HTU21D;64510;46.704;38.274;2023-06-14T10:12:10;25.91;68.37
75865;HTU21D;64510;46.704;38.274;2023-06-14T10:14:41;25.87;68.45
75865;HTU21D;64510;46.704;38.274;2023-06-14T10:17:10;25.89;67.75
75865;HTU21D;64510;46.704;38.274;2023-06-14T10:19:44;25.82;67.16
75865;HTU21D;64510;46.704;38.274;2023-06-14T10:22:35;25.69;66.62
75865;HTU21D;64510;46.704;38.274;2023-06-14T10:25:02;25.60;66.68
75865;HTU21D;64510;46.704;38.274;2023-06-14T10:27:28;25.56;65.46
75865;HTU21D;64510;46.704;38.274;2023-06-14T10:32:24;25.52;64.34
75865;HTU21D;64510;46.704;38.274;2023-06-14T10:35:06;25.46;64.03
75865;HTU21D;64510;46.704;38.274;2023-06-14T10:37:32;25.47;63.70
75865;HTU21D;64510;46.704;38.274;2023-06-14T10:39:58;25.67;62.96
75865;HTU21D;64510;46.704;38.274;2023-06-14T10:42:33;25.83;62.53
75865;HTU21D;64510;46.704;38.274;2023-06-14T10:45:00;26.01;62.10
75865;HTU21D;64510;46.704;38.274;2023-06-14T10:49:55;26.45;60.80
75865;HTU21D;64510;46.704;38.274;2023-06-14T10:52:27;26.79;60.15
75865;HTU21D;64510;46.704;38.274;2023-06-14T10:55:12;27.01;59.44
75865;HTU21D;64510;46.704;38.274;2023-06-14T10:57:50;27.25;58.74
75865;HTU21D;64510;46.704;38.274;2023-06-14T11:00:28;27.40;58.22
75865;HTU21D;64510;46.704;38.274;2023-06-14T11:06:11;27.69;57.34
75865;HTU21D;64510;46.704;38.274;2023-06-14T11:09:19;27.86;56.81
75865;HTU21D;64510;46.704;38.274;2023-06-14T11:11:46;27.87;56.84
75865;HTU21D;64510;46.704;38.274;2023-06-14T11:14:31;27.70;56.13
75865;HTU21D;64510;46.704;38.274;2023-06-14T11:19:41;27.58;56.90
75865;HTU21D;64510;46.704;38.274;2023-06-14T11:22:07;27.63;56.34
75865;HTU21D;64510;46.704;38.274;2023-06-14T11:24:34;27.43;56.58
75865;HTU21D;64510;46.704;38.274;2023-06-14T11:27:00;27.35;56.64
75865;HTU21D;64510;46.704;38.274;2023-06-14T11:29:28;27.20;56.87
75865;HTU21D;64510;46.704;38.274;2023-06-14T11:31:54;27.16;56.63
75865;HTU21D;64510;46.704;38.274;2023-06-14T11:34:20;27.04;56.94
75865;HTU21D;64510;46.704;38.274;2023-06-14T11:36:47;27.01;56.97
75865;HTU21D;64510;46.704;38.274;2023-06-14T11:39:13;26.93;57.05
75865;HTU21D;64510;46.704;38.274;2023-06-14T11:41:42;26.85;57.71
75865;HTU21D;64510;46.704;38.274;2023-06-14T11:44:08;26.84;58.25
75865;HTU21D;64510;46.704;38.274;2023-06-14T11:46:34;26.89;58.42
75865;HTU21D;64510;46.704;38.274;2023-06-14T11:49:02;26.95;58.03
75865;HTU21D;64510;46.704;38.274;2023-06-14T11:51:33;26.82;58.32
75865;HTU21D;64510;46.704;38.274;2023-06-14T11:54:03;26.82;58.11
75865;HTU21D;64510;46.704;38.274;2023-06-14T11:56:30;26.81;57.75
75865;HTU21D;64510;46.704;38.274;2023-06-14T11:58:57;26.81;57.32
75865;HTU21D;64510;46.704;38.274;2023-06-14T12:01:23;26.75;57.07
75865;HTU21D;64510;46.704;38.274;2023-06-14T12:03:50;26.65;57.45
75865;HTU21D;64510;46.704;38.274;2023-06-14T12:06:26;26.47;57.81
75865;HTU21D;64510;46.704;38.274;2023-06-14T12:08:55;26.38;57.88
75865;HTU21D;64510;46.704;38.274;2023-06-14T12:11:21;26.36;57.88
75865;HTU21D;64510;46.704;38.274;2023-06-14T12:13:49;26.36;57.84
75865;HTU21D;64510;46.704;38.274;2023-06-14T12:16:15;26.28;58.07
75865;HTU21D;64510;46.704;38.274;2023-06-14T12:18:41;26.16;58.20
75865;HTU21D;64510;46.704;38.274;2023-06-14T12:21:09;25.96;58.61
75865;HTU21D;64510;46.704;38.274;2023-06-14T12:23:46;25.82;58.87
75865;HTU21D;64510;46.704;38.274;2023-06-14T12:26:19;25.73;59.38
75865;HTU21D;64510;46.704;38.274;2023-06-14T12:28:46;25.73;59.63
75865;HTU21D;64510;46.704;38.274;2023-06-14T12:31:14;25.80;59.49
75865;HTU21D;64510;46.704;38.274;2023-06-14T12:33:40;25.78;59.08
75865;HTU21D;64510;46.704;38.274;2023-06-14T12:36:10;25.90;59.26
75865;HTU21D;64510;46.704;38.274;2023-06-14T12:38:36;26.26;58.51
75865;HTU21D;64510;46.704;38.274;2023-06-14T12:41:03;26.52;57.64
75865;HTU21D;64510;46.704;38.274;2023-06-14T12:43:29;26.71;57.32
75865;HTU21D;64510;46.704;38.274;2023-06-14T12:45:55;26.92;56.86
75865;HTU21D;64510;46.704;38.274;2023-06-14T12:48:21;27.04;56.68
75865;HTU21D;64510;46.704;38.274;2023-06-14T12:50:47;27.09;56.58
75865;HTU21D;64510;46.704;38.274;2023-06-14T12:53:13;27.15;56.41
75865;HTU21D;64510;46.704;38.274;2023-06-14T12:55:40;27.08;56.53
75865;HTU21D;64510;46.704;38.274;2023-06-14T12:58:06;27.13;56.93
75865;HTU21D;64510;46.704;38.274;2023-06-14T13:00:32;27.15;56.92
75865;HTU21D;64510;46.704;38.274;2023-06-14T13:02:58;27.16;56.93
75865;HTU21D;64510;46.704;38.274;2023-06-14T13:05:24;27.11;57.10
75865;HTU21D;64510;46.704;38.274;2023-06-14T13:07:50;27.05;57.17
75865;HTU21D;64510;46.704;38.274;2023-06-14T13:10:17;27.09;57.04
75865;HTU21D;64510;46.704;38.274;2023-06-14T13:12:43;27.15;56.91
75865;HTU21D;64510;46.704;38.274;2023-06-14T13:15:09;27.17;57.29
75865;HTU21D;64510;46.704;38.274;2023-06-14T13:17:35;27.24;57.18
75865;HTU21D;64510;46.704;38.274;2023-06-14T13:20:08;27.32;56.87
75865;HTU21D;64510;46.704;38.274;2023-06-14T13:22:34;27.41;56.38
75865;HTU21D;64510;46.704;38.274;2023-06-14T13:25:01;27.41;56.36
75865;HTU21D;64510;46.704;38.274;2023-06-14T13:27:27;27.39;56.45
75865;HTU21D;64510;46.704;38.274;2023-06-14T13:29:53;27.50;56.21
75865;HTU21D;64510;46.704;38.274;2023-06-14T13:32:23;27.58;56.01
75865;HTU21D;64510;46.704;38.274;2023-06-14T13:34:49;27.63;55.66
75865;HTU21D;64510;46.704;38.274;2023-06-14T13:37:15;27.61;55.55
75865;HTU21D;64510;46.704;38.274;2023-06-14T13:39:41;27.64;55.41
75865;HTU21D;64510;46.704;38.274;2023-06-14T13:42:07;27.67;55.45
75865;HTU21D;64510;46.704;38.274;2023-06-14T13:44:33;27.68;55.20
75865;HTU21D;64510;46.704;38.274;2023-06-14T13:47:00;27.51;55.56
75865;HTU21D;64510;46.704;38.274;2023-06-14T13:49:26;27.54;55.60
75865;HTU21D;64510;46.704;38.274;2023-06-14T13:51:52;27.43;55.16
75865;HTU21D;64510;46.704;38.274;2023-06-14T13:54:20;27.39;55.02
75865;HTU21D;64510;46.704;38.274;2023-06-14T13:56:47;27.45;54.10
75865;HTU21D;64510;46.704;38.274;2023-06-14T13:59:13;27.42;53.94
75865;HTU21D;64510;46.704;38.274;2023-06-14T14:01:39;27.43;53.94
75865;HTU21D;64510;46.704;38.274;2023-06-14T14:04:05;27.43;53.83
75865;HTU21D;64510;46.704;38.274;2023-06-14T14:06:31;27.50;53.99
75865;HTU21D;64510;46.704;38.274;2023-06-14T14:08:58;27.58;53.74
75865;HTU21D;64510;46.704;38.274;2023-06-14T14:11:23;27.65;53.54
75865;HTU21D;64510;46.704;38.274;2023-06-14T14:16:35;27.50;53.84
75865;HTU21D;64510;46.704;38.274;2023-06-14T14:19:02;27.49;53.88
75865;HTU21D;64510;46.704;38.274;2023-06-14T14:21:28;27.42;53.81
75865;HTU21D;64510;46.704;38.274;2023-06-14T14:23:54;27.37;53.89
75865;HTU21D;64510;46.704;38.274;2023-06-14T14:26:20;27.29;53.93
75865;HTU21D;64510;46.704;38.274;2023-06-14T14:28:46;27.29;53.99
75865;HTU21D;64510;46.704;38.274;2023-06-14T14:31:12;27.28;53.86
75865;HTU21D;64510;46.704;38.274;2023-06-14T14:33:38;27.20;53.91
75865;HTU21D;64510;46.704;38.274;2023-06-14T14:36:04;27.11;54.22
75865;HTU21D;64510;46.704;38.274;2023-06-14T14:38:31;27.10;54.41
75865;HTU21D;64510;46.704;38.274;2023-06-14T14:46:27;27.01;54.33
75865;HTU21D;64510;46.704;38.274;2023-06-14T14:48:53;27.01;54.56
75865;HTU21D;64510;46.704;38.274;2023-06-14T14:51:19;26.97;54.79
75865;HTU21D;64510;46.704;38.274;2023-06-14T14:53:45;27.05;54.87
75865;HTU21D;64510;46.704;38.274;2023-06-14T14:56:11;27.19;54.62
75865;HTU21D;64510;46.704;38.274;2023-06-14T14:58:38;27.27;54.29
75865;HTU21D;64510;46.704;38.274;2023-06-14T15:01:04;27.14;54.23
75865;HTU21D;64510;46.704;38.274;2023-06-14T15:03:31;27.09;54.30
75865;HTU21D;64510;46.704;38.274;2023-06-14T15:05:57;27.13;54.68
75865;HTU21D;64510;46.704;38.274;2023-06-14T15:08:23;27.21;54.61
75865;HTU21D;64510;46.704;38.274;2023-06-14T15:10:49;27.25;54.52
75865;HTU21D;64510;46.704;38.274;2023-06-14T15:13:15;27.32;54.26
75865;HTU21D;64510;46.704;38.274;2023-06-14T15:15:41;27.40;53.69
75865;HTU21D;64510;46.704;38.274;2023-06-14T15:18:07;27.44;53.65
75865;HTU21D;64510;46.704;38.274;2023-06-14T15:20:35;27.40;53.23
75865;HTU21D;64510;46.704;38.274;2023-06-14T15:23:01;27.39;53.77
75865;HTU21D;64510;46.704;38.274;2023-06-14T15:25:27;27.46;53.67
75865;HTU21D;64510;46.704;38.274;2023-06-14T15:27:54;27.45;53.38
75865;HTU21D;64510;46.704;38.274;2023-06-14T15:30:38;27.40;53.68
75865;HTU21D;64510;46.704;38.274;2023-06-14T15:33:19;27.19;54.35